createdAt,value
2022-12-23T00:01:38.080Z,59.70
2022-12-23T00:04:05.343Z,61.03
2022-12-23T00:06:32.528Z,60.67
2022-12-23T00:08:59.973Z,55.65
2022-12-23T00:11:28.090Z,59.45
2022-12-23T00:14:20.504Z,64.57
2022-12-23T00:16:50.162Z,55.05
2022-12-23T00:19:17.524Z,64.72
2022-12-23T00:21:44.625Z,68.03
2022-12-23T00:24:12.162Z,58.55
2022-12-23T00:26:39.518Z,65.68
2022-12-23T00:29:07.294Z,60.47
2022-12-23T00:31:34.403Z,53.78
2022-12-23T00:34:01.599Z,62.38
2022-12-23T00:36:30.403Z,56.30
2022-12-23T00:39:17.892Z,57.00
2022-12-23T00:42:03.710Z,62.63
2022-12-23T00:44:30.869Z,55.88
2022-12-23T00:46:58.274Z,74.63
2022-12-23T00:49:43.627Z,59.28
2022-12-23T00:52:14.061Z,63.58
2022-12-23T00:54:41.434Z,66.30
2022-12-23T00:57:08.517Z,71.20
2022-12-23T00:59:35.827Z,71.28
2022-12-23T01:02:21.234Z,67.50
2022-12-23T01:05:06.813Z,60.92
2022-12-23T01:07:33.941Z,63.75
2022-12-23T01:10:01.064Z,64.43
2022-12-23T01:12:28.193Z,65.10
2022-12-23T01:14:55.283Z,59.42
2022-12-23T01:17:22.531Z,58.85
2022-12-23T01:19:49.783Z,60.03
2022-12-23T01:22:16.954Z,59.00
2022-12-23T01:24:44.036Z,59.70
2022-12-23T01:27:11.156Z,62.80
2022-12-23T01:29:38.294Z,59.03
2022-12-23T01:32:05.505Z,60.28
2022-12-23T01:34:36.702Z,55.85
2022-12-23T01:37:05.024Z,63.58
2022-12-23T01:39:32.138Z,59.92
2022-12-23T01:42:17.559Z,55.53
2022-12-23T01:45:02.044Z,59.88
2022-12-23T01:47:36.086Z,57.17
2022-12-23T01:50:09.645Z,63.30
2022-12-23T01:52:45.639Z,62.58
2022-12-23T01:55:17.185Z,55.45
2022-12-23T01:57:45.472Z,59.50
2022-12-23T02:00:32.795Z,64.95
2022-12-23T02:03:18.213Z,61.75
2022-12-23T02:05:46.240Z,64.55
2022-12-23T02:08:34.391Z,61.47
2022-12-23T02:11:18.265Z,58.03
2022-12-23T02:14:10.552Z,56.95
2022-12-23T02:16:49.503Z,52.72
2022-12-23T02:19:53.883Z,48.50
2022-12-23T02:22:20.943Z,55.00
2022-12-23T02:25:05.439Z,46.92
2022-12-23T02:27:48.473Z,54.38
2022-12-23T02:30:30.225Z,53.88
2022-12-23T02:33:09.296Z,60.05
2022-12-23T02:36:01.304Z,54.42
2022-12-23T02:38:35.586Z,48.67
2022-12-23T02:41:13.608Z,62.28
2022-12-23T02:43:50.286Z,59.08
2022-12-23T02:46:30.754Z,56.63
2022-12-23T02:49:03.868Z,61.95
2022-12-23T02:51:36.794Z,62.67
2022-12-23T02:54:09.080Z,61.85
2022-12-23T02:56:39.543Z,55.38
2022-12-23T02:59:12.540Z,62.58
2022-12-23T03:01:41.272Z,63.75
2022-12-23T03:04:09.022Z,56.70
2022-12-23T03:06:40.652Z,55.42
2022-12-23T03:09:08.267Z,53.45
2022-12-23T03:12:03.267Z,53.40
2022-12-23T03:14:48.240Z,57.63
2022-12-23T03:17:15.270Z,58.70
2022-12-23T03:20:02.786Z,54.80
2022-12-23T03:22:46.672Z,51.30
2022-12-23T03:25:38.941Z,43.92
2022-12-23T03:28:18.599Z,42.50
2022-12-23T03:30:51.673Z,40.00
2022-12-23T03:33:24.089Z,39.17
2022-12-23T03:36:01.197Z,38.42
2022-12-23T03:38:31.545Z,41.97
2022-12-23T03:41:05.156Z,36.30
2022-12-23T03:44:04.340Z,41.97
2022-12-23T03:46:39.115Z,39.45
2022-12-23T03:49:11.961Z,42.45
2022-12-23T03:51:55.542Z,41.58
2022-12-23T03:54:36.957Z,39.63
2022-12-23T03:57:07.324Z,39.08
2022-12-23T03:59:41.119Z,40.72
2022-12-23T04:05:00.516Z,42.45
2022-12-23T04:08:11.734Z,40.55
2022-12-23T04:10:39.149Z,40.47
2022-12-23T04:13:06.469Z,42.65
2022-12-23T04:15:38.231Z,43.50
2022-12-23T04:18:05.432Z,41.15
2022-12-23T04:20:32.523Z,39.85
2022-12-23T04:22:59.628Z,43.50
2022-12-23T04:25:26.722Z,40.67
2022-12-23T04:27:53.840Z,39.85
2022-12-23T04:30:21.070Z,41.55
2022-12-23T04:32:48.152Z,41.22
2022-12-23T04:35:15.561Z,39.20
2022-12-23T04:37:42.674Z,41.53
2022-12-23T04:40:09.989Z,43.10
2022-12-23T04:42:37.805Z,41.67
2022-12-23T04:45:05.426Z,49.28
2022-12-23T04:47:32.687Z,43.90
2022-12-23T04:49:59.770Z,48.17
2022-12-23T04:52:27.042Z,51.17
2022-12-23T04:54:54.125Z,44.00
2022-12-23T04:57:21.267Z,49.97
2022-12-23T04:59:48.403Z,48.42
2022-12-23T05:02:15.662Z,44.88
2022-12-23T05:04:42.994Z,48.53
2022-12-23T05:07:10.156Z,42.28
2022-12-23T05:09:37.219Z,82.90
2022-12-23T05:12:04.393Z,46.65
2022-12-23T05:14:31.506Z,43.92
2022-12-23T05:17:03.589Z,67.95
2022-12-23T05:19:34.129Z,58.17
2022-12-23T05:22:01.460Z,64.63
2022-12-23T05:24:28.602Z,79.70
2022-12-23T05:26:59.712Z,58.50
2022-12-23T05:29:27.945Z,80.82
2022-12-23T05:31:55.213Z,75.35
2022-12-23T05:34:22.347Z,75.05
2022-12-23T05:36:49.517Z,50.58
2022-12-23T05:39:16.614Z,47.75
2022-12-23T05:41:43.817Z,54.92
2022-12-23T05:44:10.965Z,38.90
2022-12-23T05:46:38.159Z,38.33
2022-12-23T05:49:05.373Z,36.15
2022-12-23T05:51:32.455Z,40.05
2022-12-23T05:53:59.596Z,38.15
2022-12-23T05:56:26.686Z,37.20
2022-12-23T05:58:53.953Z,40.00
2022-12-23T06:01:21.046Z,40.92
2022-12-23T06:03:48.221Z,41.83
2022-12-23T06:06:15.421Z,41.65
2022-12-23T06:08:42.583Z,42.88
2022-12-23T06:11:09.724Z,42.85
2022-12-23T06:13:36.799Z,36.58
2022-12-23T06:16:04.389Z,41.13
2022-12-23T06:18:31.536Z,40.40
2022-12-23T06:20:58.616Z,39.92
2022-12-23T06:23:25.704Z,39.67
2022-12-23T06:25:59.959Z,38.28
2022-12-23T06:28:27.654Z,36.67
2022-12-23T06:30:55.808Z,38.10
2022-12-23T06:33:24.115Z,45.83
2022-12-23T06:35:51.296Z,41.50
2022-12-23T06:38:18.455Z,39.53
2022-12-23T06:40:45.559Z,38.65
2022-12-23T06:43:13.473Z,32.55
2022-12-23T06:45:41.041Z,38.55
2022-12-23T06:48:08.233Z,36.67
2022-12-23T06:50:35.347Z,38.63
2022-12-23T06:53:02.418Z,34.13
2022-12-23T06:55:29.600Z,38.80
2022-12-23T06:57:56.652Z,32.63
2022-12-23T07:00:23.918Z,35.97
2022-12-23T07:02:53.642Z,41.50
2022-12-23T07:05:20.941Z,45.25
2022-12-23T07:07:48.131Z,42.97
2022-12-23T07:10:15.651Z,40.20
2022-12-23T07:12:49.004Z,40.90
2022-12-23T07:15:17.867Z,41.05
2022-12-23T07:17:44.953Z,45.97
2022-12-23T07:20:13.510Z,42.35
2022-12-23T07:22:40.637Z,34.70
2022-12-23T07:25:08.488Z,36.55
2022-12-23T07:27:35.681Z,36.00
2022-12-23T07:30:03.243Z,35.13
2022-12-23T07:32:30.379Z,38.58
2022-12-23T07:34:57.461Z,36.95
2022-12-23T07:37:24.600Z,39.92
2022-12-23T07:39:51.697Z,38.17
2022-12-23T07:42:44.846Z,33.78
2022-12-23T07:45:06.768Z,32.40
2022-12-23T07:47:33.932Z,37.20
2022-12-23T07:50:09.449Z,34.60
2022-12-23T07:52:36.690Z,36.55
2022-12-23T07:55:05.332Z,41.72
2022-12-23T07:57:38.210Z,38.45
2022-12-23T08:00:15.732Z,59.25
2022-12-23T08:02:43.317Z,40.40
2022-12-23T08:05:11.528Z,34.88
2022-12-23T08:07:38.950Z,37.65
2022-12-23T08:10:07.203Z,35.42
2022-12-23T08:12:34.352Z,36.97
2022-12-23T08:15:01.509Z,36.13
2022-12-23T08:17:30.374Z,32.47
2022-12-23T08:19:57.602Z,32.78
2022-12-23T08:22:24.907Z,36.65
2022-12-23T08:24:52.626Z,41.28
2022-12-23T08:27:19.860Z,44.53
2022-12-23T08:29:46.978Z,39.42
2022-12-23T08:32:14.063Z,41.08
2022-12-23T08:34:41.134Z,43.97
2022-12-23T08:37:08.227Z,42.47
2022-12-23T08:39:35.653Z,41.17
2022-12-23T08:42:02.753Z,46.55
2022-12-23T08:44:31.004Z,44.25
2022-12-23T08:46:58.140Z,44.00
2022-12-23T08:49:25.294Z,40.15
2022-12-23T08:51:52.467Z,41.00
2022-12-23T08:54:20.387Z,42.30
2022-12-23T08:56:47.811Z,43.47
2022-12-23T08:59:19.468Z,46.63
2022-12-23T09:01:48.087Z,41.97
2022-12-23T09:04:15.723Z,40.30
2022-12-23T09:06:43.605Z,43.20
2022-12-23T09:09:14.218Z,43.03
2022-12-23T09:11:41.841Z,43.53
2022-12-23T09:14:10.128Z,41.88
2022-12-23T09:16:37.774Z,45.17
2022-12-23T09:19:05.067Z,46.83
2022-12-23T09:21:32.285Z,44.28
2022-12-23T09:23:59.340Z,41.53
2022-12-23T09:26:29.252Z,45.75
2022-12-23T09:28:56.975Z,43.45
2022-12-23T09:31:26.717Z,42.05
2022-12-23T09:33:56.561Z,46.53
2022-12-23T09:36:23.625Z,52.72
2022-12-23T09:38:54.823Z,51.10
2022-12-23T09:42:01.257Z,51.58
2022-12-23T09:45:05.816Z,51.25
2022-12-23T09:47:34.001Z,52.58
2022-12-23T09:50:10.505Z,52.17
2022-12-23T09:52:54.599Z,47.47
2022-12-23T09:58:03.627Z,46.55
2022-12-23T10:00:48.876Z,56.28
2022-12-23T10:03:21.784Z,53.67
2022-12-23T10:06:18.881Z,51.30
2022-12-23T10:08:54.385Z,54.38
2022-12-23T10:11:25.886Z,56.65
2022-12-23T10:14:09.986Z,58.63
2022-12-23T10:19:16.747Z,50.50
2022-12-23T10:21:48.446Z,57.20
2022-12-23T10:24:25.924Z,50.08
2022-12-23T10:26:54.623Z,48.75
2022-12-23T10:29:24.098Z,49.60
2022-12-23T10:32:00.161Z,46.25
2022-12-23T10:34:41.434Z,50.90
2022-12-23T10:37:31.571Z,58.97
2022-12-23T10:40:23.205Z,52.15
2022-12-23T10:43:15.295Z,51.03
2022-12-23T10:46:10.443Z,47.13
2022-12-23T10:49:05.094Z,51.20
2022-12-23T10:51:47.474Z,50.80
2022-12-23T10:54:21.383Z,55.28
2022-12-23T10:56:48.683Z,44.72
2022-12-23T10:59:23.270Z,48.58
2022-12-23T11:01:58.437Z,45.58
2022-12-23T11:04:34.549Z,45.75
2022-12-23T11:07:41.495Z,44.67
2022-12-23T11:10:13.132Z,43.53
2022-12-23T11:12:43.921Z,42.63
2022-12-23T11:15:32.956Z,45.13
2022-12-23T11:18:07.039Z,41.92
2022-12-23T11:20:36.217Z,38.97
2022-12-23T11:23:05.812Z,36.10
2022-12-23T11:25:32.861Z,39.33
2022-12-23T11:28:22.047Z,34.20
2022-12-23T11:30:58.676Z,40.38
2022-12-23T11:33:28.458Z,36.95
2022-12-23T11:36:13.438Z,33.97
2022-12-23T11:38:55.468Z,36.50
2022-12-23T11:41:27.140Z,31.40
2022-12-23T11:44:20.683Z,32.50
2022-12-23T11:46:47.908Z,38.55
2022-12-23T11:49:22.926Z,31.00
2022-12-23T11:52:16.936Z,30.00
2022-12-23T11:54:55.519Z,30.77
2022-12-23T11:57:32.703Z,30.33
2022-12-23T12:00:06.384Z,33.65
2022-12-23T12:05:25.273Z,30.48
2022-12-23T12:07:52.893Z,25.80
2022-12-23T12:10:28.303Z,26.02
2022-12-23T12:12:58.119Z,28.40
2022-12-23T12:15:35.643Z,31.25
2022-12-23T12:18:10.098Z,28.15
2022-12-23T12:20:41.886Z,30.63
2022-12-23T12:23:21.165Z,27.27
2022-12-23T12:26:06.003Z,29.35
2022-12-23T12:28:38.698Z,30.60
2022-12-23T12:31:28.103Z,28.27
2022-12-23T12:33:57.911Z,28.73
2022-12-23T12:36:36.748Z,24.90
2022-12-23T12:39:21.169Z,24.30
2022-12-23T12:41:52.609Z,21.45
2022-12-23T12:44:25.386Z,21.05
2022-12-23T12:47:04.128Z,18.50
2022-12-23T12:50:00.115Z,18.42
2022-12-23T12:55:03.949Z,20.17
2022-12-23T12:57:34.859Z,23.00
2022-12-23T13:00:06.518Z,22.00
2022-12-23T13:02:40.060Z,22.90
2022-12-23T13:05:32.302Z,22.60
2022-12-23T13:08:14.551Z,22.52
2022-12-23T13:10:47.355Z,26.52
2022-12-23T13:16:16.484Z,23.15
2022-12-23T13:19:06.665Z,23.98
2022-12-23T13:21:59.433Z,21.40
2022-12-23T13:24:36.674Z,22.95
2022-12-23T13:27:35.015Z,26.95
2022-12-23T13:30:04.318Z,24.90
2022-12-23T13:33:06.884Z,22.75
2022-12-23T13:35:48.977Z,23.60
2022-12-23T13:38:54.432Z,21.08
2022-12-23T13:41:30.160Z,22.08
2022-12-23T13:44:02.547Z,25.55
2022-12-23T13:46:32.798Z,20.27
2022-12-23T13:49:05.583Z,25.85
2022-12-23T13:51:51.319Z,21.67
2022-12-23T13:54:37.058Z,25.55
2022-12-23T13:57:36.324Z,24.40
2022-12-23T14:00:19.290Z,25.90
2022-12-23T14:03:05.872Z,26.13
2022-12-23T14:05:34.632Z,27.73
2022-12-23T14:08:06.504Z,27.10
2022-12-23T14:10:35.462Z,41.17
2022-12-23T14:13:08.709Z,38.42
2022-12-23T14:15:58.084Z,42.33
2022-12-23T14:18:53.301Z,40.90
2022-12-23T14:21:43.257Z,41.65
2022-12-23T14:24:43.127Z,46.88
2022-12-23T14:27:24.315Z,40.95
2022-12-23T14:30:13.293Z,36.85
2022-12-23T14:32:57.511Z,37.85
2022-12-23T14:35:40.220Z,38.60
2022-12-23T14:38:30.908Z,40.97
2022-12-23T14:41:19.478Z,36.35
2022-12-23T14:43:46.549Z,38.78
2022-12-23T14:46:35.196Z,40.17
2022-12-23T14:52:57.163Z,42.38
2022-12-23T14:55:32.600Z,36.15
2022-12-23T14:58:12.612Z,38.15
2022-12-23T15:01:12.322Z,37.60
2022-12-23T15:03:46.252Z,38.22
2022-12-23T15:06:30.928Z,37.63
2022-12-23T15:08:59.356Z,40.38
2022-12-23T15:11:31.684Z,40.10
2022-12-23T15:14:03.414Z,42.83
2022-12-23T15:16:40.316Z,39.15
2022-12-23T15:19:25.870Z,41.88
2022-12-23T15:22:17.908Z,41.92
2022-12-23T15:24:49.625Z,37.45
2022-12-23T15:27:27.201Z,34.10
2022-12-23T15:29:55.581Z,35.83
2022-12-23T15:32:24.627Z,39.03
2022-12-23T15:34:54.812Z,41.22
2022-12-23T15:37:27.665Z,37.58
2022-12-23T15:40:04.547Z,42.40
2022-12-23T15:42:38.353Z,44.50
2022-12-23T15:45:23.674Z,38.75
2022-12-23T15:47:51.038Z,45.42
2022-12-23T15:50:19.087Z,36.40
2022-12-23T15:52:48.888Z,41.60
2022-12-23T15:55:31.480Z,37.13
2022-12-23T15:58:00.017Z,32.45
2022-12-23T16:00:31.284Z,36.95
2022-12-23T16:03:01.019Z,35.03
2022-12-23T16:05:38.657Z,36.50
2022-12-23T16:08:10.563Z,35.78
2022-12-23T16:10:38.515Z,40.05
2022-12-23T16:13:20.152Z,33.42
2022-12-23T16:15:47.410Z,38.58
2022-12-23T16:18:25.449Z,36.28
2022-12-23T16:20:56.715Z,37.00
2022-12-23T16:23:29.223Z,40.95
2022-12-23T16:26:00.305Z,35.78
2022-12-23T16:28:38.496Z,41.88
2022-12-23T16:31:07.329Z,40.55
2022-12-23T16:33:58.708Z,44.92
2022-12-23T16:36:28.842Z,41.13
2022-12-23T16:39:00.441Z,39.95
2022-12-23T16:41:27.548Z,41.78
2022-12-23T16:43:54.959Z,39.63
2022-12-23T16:46:23.324Z,40.22
2022-12-23T16:48:59.266Z,47.03
2022-12-23T16:51:27.985Z,43.03
2022-12-23T16:53:56.992Z,38.45
2022-12-23T16:56:28.097Z,34.80
2022-12-23T16:58:55.315Z,41.92
2022-12-23T17:01:27.447Z,38.97
2022-12-23T17:03:55.834Z,38.22
2022-12-23T17:06:24.020Z,37.28
2022-12-23T17:08:53.028Z,39.38
2022-12-23T17:11:25.235Z,36.97
2022-12-23T17:13:55.321Z,40.65
2022-12-23T17:16:25.325Z,40.05
2022-12-23T17:18:53.114Z,38.83
2022-12-23T17:21:26.227Z,46.15
2022-12-23T17:23:56.766Z,52.50
2022-12-23T17:26:24.039Z,49.00
2022-12-23T17:28:51.158Z,44.38
2022-12-23T17:31:26.747Z,50.95
2022-12-23T17:33:54.605Z,64.10
2022-12-23T17:36:21.847Z,60.30
2022-12-23T17:38:49.037Z,56.42
2022-12-23T17:41:24.085Z,59.58
2022-12-23T17:43:51.251Z,61.15
2022-12-23T17:46:18.404Z,60.88
2022-12-23T17:48:47.025Z,66.47
2022-12-23T17:51:16.929Z,75.10
2022-12-23T17:53:44.865Z,65.78
2022-12-23T17:56:20.124Z,70.03
2022-12-23T17:58:49.522Z,71.60
2022-12-23T18:01:22.168Z,68.60
2022-12-23T18:03:49.327Z,70.82
2022-12-23T18:06:18.741Z,79.18
2022-12-23T18:08:46.248Z,73.97
2022-12-23T18:11:41.953Z,72.28
2022-12-23T18:14:16.171Z,82.55
2022-12-23T18:16:43.367Z,75.72
2022-12-23T18:19:17.582Z,76.38
2022-12-23T18:21:45.392Z,77.93
2022-12-23T18:24:12.751Z,72.25
2022-12-23T18:26:40.027Z,74.75
2022-12-23T18:29:07.182Z,74.90
2022-12-23T18:31:37.252Z,74.72
2022-12-23T18:34:04.570Z,79.07
2022-12-23T18:36:35.659Z,79.70
2022-12-23T18:39:02.838Z,77.35
2022-12-23T18:41:29.910Z,77.90
2022-12-23T18:43:56.984Z,70.35
2022-12-23T18:46:24.255Z,75.97
2022-12-23T18:48:51.738Z,85.43
2022-12-23T18:51:21.010Z,78.13
2022-12-23T18:53:48.713Z,74.97
2022-12-23T18:56:19.167Z,79.60
2022-12-23T18:58:47.208Z,72.43
2022-12-23T19:01:16.548Z,79.25
2022-12-23T19:03:44.219Z,75.57
2022-12-23T19:06:13.836Z,84.05
2022-12-23T19:08:42.617Z,76.00
2022-12-23T19:11:14.712Z,81.72
2022-12-23T19:13:41.887Z,74.45
2022-12-23T19:16:13.951Z,74.47
2022-12-23T19:18:41.333Z,84.70
2022-12-23T19:21:09.233Z,76.13
2022-12-23T19:23:37.132Z,72.40
2022-12-23T19:26:06.124Z,84.03
2022-12-23T19:28:33.581Z,82.07
2022-12-23T19:31:00.833Z,80.50
2022-12-23T19:33:27.963Z,78.10
2022-12-23T19:35:55.085Z,83.07
2022-12-23T19:38:22.161Z,73.60
2022-12-23T19:40:57.525Z,80.38
2022-12-23T19:43:24.653Z,78.05
2022-12-23T19:46:03.208Z,80.57
2022-12-23T19:48:31.075Z,78.32
2022-12-23T19:51:17.087Z,75.53
2022-12-23T19:53:46.024Z,78.57
2022-12-23T19:56:15.584Z,81.95
2022-12-23T19:58:44.178Z,84.50
2022-12-23T20:01:22.442Z,80.07
2022-12-23T20:03:50.872Z,80.63
2022-12-23T20:06:21.509Z,84.43
2022-12-23T20:08:49.138Z,77.68
2022-12-23T20:11:18.900Z,77.82
2022-12-23T20:13:47.127Z,74.90
2022-12-23T20:16:14.447Z,86.15
2022-12-23T20:18:41.565Z,82.07
2022-12-23T20:21:08.694Z,81.70
2022-12-23T20:23:36.161Z,83.25
2022-12-23T20:26:04.397Z,80.95
2022-12-23T20:28:31.790Z,68.13
2022-12-23T20:31:09.420Z,70.28
2022-12-23T20:33:38.556Z,81.38
2022-12-23T20:36:07.001Z,78.63
2022-12-23T20:38:35.620Z,91.10
2022-12-23T20:41:05.435Z,75.97
2022-12-23T20:43:34.613Z,93.25
2022-12-23T20:46:02.681Z,92.47
2022-12-23T20:48:34.047Z,88.32
2022-12-23T20:51:10.433Z,83.30
2022-12-23T20:53:39.005Z,86.15
2022-12-23T20:56:09.463Z,88.63
2022-12-23T20:58:55.801Z,86.50
2022-12-23T21:01:38.103Z,88.10
2022-12-23T21:04:11.748Z,82.50
2022-12-23T21:06:39.685Z,79.45
2022-12-23T21:09:08.957Z,88.78
2022-12-23T21:11:39.226Z,79.07
2022-12-23T21:14:07.726Z,79.57
2022-12-23T21:16:36.790Z,75.93
2022-12-23T21:19:05.049Z,86.25
2022-12-23T21:21:32.206Z,79.93
2022-12-23T21:24:01.550Z,80.50
2022-12-23T21:26:30.686Z,85.75
2022-12-23T21:28:59.628Z,82.88
2022-12-23T21:31:28.887Z,76.72
2022-12-23T21:33:56.511Z,82.82
2022-12-23T21:36:26.770Z,78.70
2022-12-23T21:38:54.005Z,75.97
2022-12-23T21:41:24.328Z,83.10
2022-12-23T21:43:52.103Z,82.78
2022-12-23T21:46:21.944Z,81.97
2022-12-23T21:48:50.050Z,76.50
2022-12-23T21:51:18.540Z,75.90
2022-12-23T21:53:47.805Z,79.25
2022-12-23T21:56:17.938Z,79.93
2022-12-23T21:58:45.923Z,76.30
2022-12-23T22:01:20.724Z,76.50
2022-12-23T22:03:49.883Z,79.70
2022-12-23T22:06:22.491Z,74.47
2022-12-23T22:08:51.648Z,68.10
2022-12-23T22:11:21.467Z,73.68
2022-12-23T22:13:48.803Z,75.50
2022-12-23T22:16:18.384Z,73.95
2022-12-23T22:18:46.455Z,80.65
2022-12-23T22:21:16.346Z,74.40
2022-12-23T22:23:43.704Z,78.35
2022-12-23T22:26:17.501Z,70.60
2022-12-23T22:28:47.537Z,75.32
2022-12-23T22:31:14.670Z,73.95
2022-12-23T22:33:41.858Z,72.07
2022-12-23T22:36:13.673Z,71.97
2022-12-23T22:38:41.255Z,67.70
2022-12-23T22:41:08.965Z,70.60
2022-12-23T22:43:36.553Z,66.40
2022-12-23T22:46:04.160Z,71.88
2022-12-23T22:48:31.576Z,67.95
2022-12-23T22:51:13.377Z,73.32
2022-12-23T22:53:40.523Z,70.93
2022-12-23T22:56:08.591Z,68.68
2022-12-23T22:58:35.667Z,67.60
2022-12-23T23:01:03.540Z,71.00
2022-12-23T23:03:31.923Z,73.80
2022-12-23T23:06:03.751Z,66.35
2022-12-23T23:08:31.505Z,66.15
2022-12-23T23:11:00.553Z,74.45
2022-12-23T23:13:31.248Z,77.07
2022-12-23T23:15:59.425Z,72.13
2022-12-23T23:18:27.699Z,64.85
2022-12-23T23:20:54.949Z,67.50
2022-12-23T23:23:22.232Z,71.47
2022-12-23T23:25:49.381Z,69.32
2022-12-23T23:28:16.531Z,75.35
2022-12-23T23:30:43.646Z,76.28
2022-12-23T23:33:11.054Z,70.22
2022-12-23T23:35:38.269Z,69.88
2022-12-23T23:38:05.760Z,76.53
2022-12-23T23:40:32.977Z,67.72
2022-12-23T23:43:00.106Z,71.57
2022-12-23T23:45:27.856Z,67.90
2022-12-23T23:47:55.462Z,74.95
2022-12-23T23:50:23.048Z,73.13
2022-12-23T23:52:50.155Z,81.80
2022-12-23T23:55:17.361Z,78.45
2022-12-23T23:57:44.461Z,69.18
